IRA962T FOOL-FTTJ
Flight info
| Callsign | IRA962T |
|---|---|
| Flight time | 2h 4m |
| Altitude | 35000 |
| Route | ARASI3S ARASI UH455 TJR/N0376F230 G857 POTED POTED1N |
| Aircraft | B738/M-SDE2E3FGHIRWXY/LB1 |
Departure
| Time | 2026-04-24 20:38 |
|---|---|
| Airport | Libreville Leon M'ba International Airport (FOOL) |
Arrival
| Time | 2026-04-24 22:43 |
|---|---|
| Airport | N'Djamena International Airport (FTTJ) |
| Time | Latitude | Longitude | Altitude | Speed | Heading |
|---|---|---|---|---|---|
| 2026-04-24 20:22 | 0.46212 | 9.40852 | 34 ft | 0 kts | 235° |
| 2026-04-24 20:32 | 0.46219 | 9.40862 | 34 ft | 4 kts | 240° |
| 2026-04-24 20:32 | 0.46224 | 9.40876 | 30 ft | 2 kts | 314° |
| 2026-04-24 20:33 | 0.46204 | 9.40891 | 33 ft | 4 kts | 335° |
| 2026-04-24 20:33 | 0.46191 | 9.40897 | 34 ft | 0 kts | 334° |
| 2026-04-24 20:35 | 0.46193 | 9.40896 | 34 ft | 1 kts | 334° |
| 2026-04-24 20:35 | 0.46209 | 9.40888 | 32 ft | 4 kts | 334° |
| 2026-04-24 20:35 | 0.46244 | 9.40876 | 33 ft | 7 kts | 354° |
| 2026-04-24 20:36 | 0.46295 | 9.40890 | 33 ft | 8 kts | 0° |
| 2026-04-24 20:36 | 0.46354 | 9.40867 | 32 ft | 10 kts | 334° |
| 2026-04-24 20:36 | 0.46424 | 9.40852 | 34 ft | 11 kts | 36° |
| 2026-04-24 20:36 | 0.46472 | 9.40904 | 36 ft | 10 kts | 52° |
| 2026-04-24 20:37 | 0.46460 | 9.40940 | 36 ft | 0 kts | 150° |
| 2026-04-24 20:37 | 0.46409 | 9.40968 | 35 ft | 27 kts | 152° |
| 2026-04-24 20:38 | 0.46006 | 9.41165 | 32 ft | 101 kts | 154° |
| 2026-04-24 20:38 | 0.45172 | 9.41566 | 36 ft | 162 kts | 154° |
| 2026-04-24 20:38 | 0.44122 | 9.42163 | 533 ft | 178 kts | 136° |
| 2026-04-24 20:38 | 0.43317 | 9.43174 | 1117 ft | 200 kts | 122° |
| 2026-04-24 20:39 | 0.42417 | 9.44362 | 1358 ft | 228 kts | 126° |
| 2026-04-24 20:39 | 0.41857 | 9.45896 | 1729 ft | 247 kts | 88° |
| 2026-04-24 20:39 | 0.42359 | 9.47540 | 2431 ft | 252 kts | 63° |
| 2026-04-24 20:39 | 0.43154 | 9.49104 | 3314 ft | 253 kts | 63° |
| 2026-04-24 20:40 | 0.43952 | 9.50682 | 4139 ft | 256 kts | 63° |
| 2026-04-24 20:40 | 0.44752 | 9.52284 | 4938 ft | 259 kts | 64° |
| 2026-04-24 20:40 | 0.45553 | 9.53909 | 5728 ft | 262 kts | 64° |
| 2026-04-24 20:40 | 0.46360 | 9.55556 | 6513 ft | 265 kts | 64° |
| 2026-04-24 20:41 | 0.47175 | 9.57224 | 7292 ft | 268 kts | 64° |
| 2026-04-24 20:41 | 0.48016 | 9.58899 | 8033 ft | 272 kts | 58° |
| 2026-04-24 20:41 | 0.49357 | 9.60216 | 8752 ft | 274 kts | 30° |
| 2026-04-24 20:41 | 0.51048 | 9.61117 | 9495 ft | 277 kts | 27° |
| 2026-04-24 20:42 | 0.52773 | 9.61997 | 10197 ft | 281 kts | 27° |
| 2026-04-24 20:42 | 0.54525 | 9.62887 | 10907 ft | 284 kts | 27° |
| 2026-04-24 20:42 | 0.56265 | 9.63775 | 11597 ft | 286 kts | 27° |
| 2026-04-24 20:42 | 0.58052 | 9.64693 | 12194 ft | 294 kts | 27° |
| 2026-04-24 20:43 | 0.59939 | 9.65666 | 12365 ft | 317 kts | 27° |
| 2026-04-24 20:43 | 0.61960 | 9.66710 | 12550 ft | 338 kts | 27° |
| 2026-04-24 20:43 | 0.64109 | 9.67822 | 12706 ft | 357 kts | 27° |
| 2026-04-24 20:43 | 0.66370 | 9.68993 | 12978 ft | 372 kts | 27° |
| 2026-04-24 20:44 | 0.68686 | 9.70192 | 13515 ft | 378 kts | 27° |
| 2026-04-24 20:44 | 0.71027 | 9.71402 | 14148 ft | 380 kts | 27° |
| 2026-04-24 20:44 | 0.73387 | 9.72620 | 14754 ft | 383 kts | 27° |
| 2026-04-24 20:44 | 0.75769 | 9.73847 | 15346 ft | 386 kts | 27° |
| 2026-04-24 20:45 | 0.78164 | 9.75082 | 15915 ft | 390 kts | 27° |
| 2026-04-24 20:45 | 0.80587 | 9.76331 | 16485 ft | 393 kts | 27° |
| 2026-04-24 20:45 | 0.83021 | 9.77586 | 17039 ft | 396 kts | 27° |
| 2026-04-24 20:45 | 0.85477 | 9.78853 | 17582 ft | 399 kts | 27° |
| 2026-04-24 20:46 | 0.87950 | 9.80129 | 18100 ft | 402 kts | 27° |
| 2026-04-24 20:46 | 0.90442 | 9.81415 | 18605 ft | 405 kts | 27° |
| 2026-04-24 20:46 | 0.92950 | 9.82709 | 19105 ft | 408 kts | 27° |
| 2026-04-24 20:46 | 0.95481 | 9.84015 | 19587 ft | 411 kts | 27° |
| 2026-04-24 20:47 | 0.98028 | 9.85329 | 20069 ft | 413 kts | 27° |
| 2026-04-24 20:47 | 1.00594 | 9.86654 | 20533 ft | 416 kts | 27° |
| 2026-04-24 20:47 | 1.03174 | 9.87985 | 20976 ft | 419 kts | 27° |
| 2026-04-24 20:47 | 1.05769 | 9.89324 | 21417 ft | 422 kts | 27° |
| 2026-04-24 20:48 | 1.08380 | 9.90672 | 21838 ft | 424 kts | 27° |
| 2026-04-24 20:48 | 1.11016 | 9.92032 | 22249 ft | 427 kts | 27° |
| 2026-04-24 20:48 | 1.13664 | 9.93399 | 22642 ft | 430 kts | 27° |
| 2026-04-24 20:48 | 1.16327 | 9.94773 | 23030 ft | 433 kts | 27° |
| 2026-04-24 20:49 | 1.19011 | 9.96158 | 23361 ft | 436 kts | 27° |
| 2026-04-24 20:49 | 1.21713 | 9.97553 | 23735 ft | 438 kts | 27° |
| 2026-04-24 20:49 | 1.24431 | 9.98956 | 24089 ft | 441 kts | 27° |
| 2026-04-24 20:49 | 1.27163 | 10.00365 | 24422 ft | 443 kts | 27° |
| 2026-04-24 20:50 | 1.29908 | 10.01782 | 24741 ft | 446 kts | 27° |
| 2026-04-24 20:50 | 1.32676 | 10.03211 | 24995 ft | 450 kts | 27° |
| 2026-04-24 20:50 | 1.35461 | 10.04649 | 25348 ft | 451 kts | 27° |
| 2026-04-24 20:50 | 1.38258 | 10.06093 | 25681 ft | 453 kts | 27° |
| 2026-04-24 20:51 | 1.41059 | 10.07539 | 26022 ft | 454 kts | 27° |
| 2026-04-24 20:51 | 1.43869 | 10.08989 | 26309 ft | 456 kts | 27° |
| 2026-04-24 20:51 | 1.46694 | 10.10447 | 26581 ft | 458 kts | 27° |
| 2026-04-24 20:51 | 1.49531 | 10.11912 | 26950 ft | 458 kts | 27° |
| 2026-04-24 20:52 | 1.52351 | 10.13368 | 27400 ft | 456 kts | 27° |
| 2026-04-24 20:52 | 1.55160 | 10.14819 | 27855 ft | 453 kts | 27° |
| 2026-04-24 20:52 | 1.57958 | 10.16263 | 28281 ft | 452 kts | 27° |
| 2026-04-24 20:52 | 1.60754 | 10.17707 | 28536 ft | 454 kts | 27° |
| 2026-04-24 20:53 | 1.63561 | 10.19156 | 28847 ft | 454 kts | 27° |
| 2026-04-24 20:53 | 1.66365 | 10.20604 | 29234 ft | 453 kts | 27° |
| 2026-04-24 20:53 | 1.69152 | 10.22044 | 29727 ft | 449 kts | 27° |
| 2026-04-24 20:53 | 1.71924 | 10.23475 | 30067 ft | 448 kts | 27° |
| 2026-04-24 20:54 | 1.74696 | 10.24907 | 30346 ft | 449 kts | 27° |
| 2026-04-24 20:54 | 1.77469 | 10.26339 | 30605 ft | 450 kts | 27° |
| 2026-04-24 20:54 | 1.80228 | 10.27768 | 31180 ft | 442 kts | 28° |
| 2026-04-24 20:54 | 1.82884 | 10.29314 | 31471 ft | 443 kts | 32° |
| 2026-04-24 20:55 | 1.85470 | 10.31014 | 31664 ft | 445 kts | 34° |
| 2026-04-24 20:55 | 1.88023 | 10.32771 | 31931 ft | 445 kts | 34° |
| 2026-04-24 20:55 | 1.90563 | 10.34528 | 32279 ft | 443 kts | 34° |
| 2026-04-24 20:55 | 1.93098 | 10.36266 | 32611 ft | 442 kts | 34° |
| 2026-04-24 20:56 | 1.95605 | 10.37964 | 32878 ft | 441 kts | 34° |
| 2026-04-24 20:56 | 1.98156 | 10.39674 | 33119 ft | 442 kts | 34° |
| 2026-04-24 20:56 | 2.00714 | 10.41377 | 33371 ft | 441 kts | 33° |
| 2026-04-24 20:56 | 2.03270 | 10.43075 | 33651 ft | 440 kts | 33° |
| 2026-04-24 20:57 | 2.05820 | 10.44765 | 33918 ft | 440 kts | 33° |
| 2026-04-24 20:57 | 2.08368 | 10.46454 | 34153 ft | 439 kts | 33° |
| 2026-04-24 20:57 | 2.10914 | 10.48143 | 34382 ft | 439 kts | 33° |
| 2026-04-24 20:57 | 2.13460 | 10.49832 | 34622 ft | 439 kts | 33° |
| 2026-04-24 20:58 | 2.15999 | 10.51517 | 34848 ft | 438 kts | 33° |
| 2026-04-24 20:58 | 2.18542 | 10.53205 | 35011 ft | 439 kts | 33° |
| 2026-04-24 20:58 | 2.23653 | 10.56598 | 35000 ft | 441 kts | 33° |
| 2026-04-24 20:59 | 2.28744 | 10.59978 | 34998 ft | 438 kts | 33° |
| 2026-04-24 20:59 | 2.33809 | 10.63341 | 34999 ft | 436 kts | 33° |
| 2026-04-24 21:00 | 2.37997 | 10.66123 | 34999 ft | 434 kts | 33° |
| 2026-04-24 21:00 | 2.43025 | 10.69462 | 35002 ft | 434 kts | 33° |
| 2026-04-24 21:01 | 2.48050 | 10.72800 | 35007 ft | 434 kts | 33° |
| 2026-04-24 21:01 | 2.53082 | 10.76140 | 35004 ft | 435 kts | 33° |
| 2026-04-24 21:02 | 2.58135 | 10.79493 | 35003 ft | 437 kts | 33° |
| 2026-04-24 21:02 | 2.63207 | 10.82860 | 35001 ft | 438 kts | 33° |
| 2026-04-24 21:03 | 2.68299 | 10.86241 | 34996 ft | 440 kts | 33° |
| 2026-04-24 21:03 | 2.73410 | 10.89636 | 34999 ft | 443 kts | 33° |
| 2026-04-24 21:04 | 2.78590 | 10.93077 | 35010 ft | 451 kts | 33° |
| 2026-04-24 21:04 | 2.83838 | 10.96563 | 35007 ft | 454 kts | 33° |
| 2026-04-24 21:05 | 2.89099 | 11.00058 | 35000 ft | 454 kts | 33° |
| 2026-04-24 21:05 | 2.94355 | 11.03552 | 35004 ft | 454 kts | 33° |
| 2026-04-24 21:06 | 2.99607 | 11.07042 | 35001 ft | 453 kts | 33° |
| 2026-04-24 21:06 | 3.04858 | 11.10531 | 34994 ft | 453 kts | 33° |
| 2026-04-24 21:07 | 3.10102 | 11.14017 | 35000 ft | 452 kts | 33° |
| 2026-04-24 21:07 | 3.15342 | 11.17501 | 34996 ft | 452 kts | 33° |
| 2026-04-24 21:08 | 3.20581 | 11.20984 | 34996 ft | 452 kts | 33° |
| 2026-04-24 21:08 | 3.25780 | 11.24441 | 35008 ft | 452 kts | 33° |
| 2026-04-24 21:09 | 3.31015 | 11.27923 | 34998 ft | 451 kts | 33° |
| 2026-04-24 21:09 | 3.36243 | 11.31400 | 35000 ft | 451 kts | 33° |
| 2026-04-24 21:10 | 3.41468 | 11.34876 | 35002 ft | 451 kts | 33° |
| 2026-04-24 21:10 | 3.46696 | 11.38354 | 34998 ft | 451 kts | 33° |
| 2026-04-24 21:11 | 3.51917 | 11.41829 | 35001 ft | 451 kts | 33° |
| 2026-04-24 21:11 | 3.57138 | 11.45304 | 34997 ft | 451 kts | 33° |
| 2026-04-24 21:12 | 3.62362 | 11.48782 | 35006 ft | 451 kts | 33° |
| 2026-04-24 21:12 | 3.67584 | 11.52258 | 34999 ft | 451 kts | 33° |
| 2026-04-24 21:13 | 3.72889 | 11.55598 | 34986 ft | 451 kts | 26° |
| 2026-04-24 21:13 | 3.78790 | 11.57680 | 35002 ft | 450 kts | 17° |
| 2026-04-24 21:14 | 3.84789 | 11.59502 | 34995 ft | 451 kts | 17° |
| 2026-04-24 21:14 | 3.90783 | 11.61352 | 35001 ft | 451 kts | 17° |
| 2026-04-24 21:15 | 3.96769 | 11.63232 | 35001 ft | 451 kts | 17° |
| 2026-04-24 21:15 | 4.02754 | 11.65125 | 34999 ft | 451 kts | 17° |
| 2026-04-24 21:16 | 4.08736 | 11.67019 | 35003 ft | 451 kts | 17° |
| 2026-04-24 21:16 | 4.14717 | 11.68911 | 35005 ft | 451 kts | 17° |
| 2026-04-24 21:17 | 4.20696 | 11.70803 | 35001 ft | 450 kts | 17° |
| 2026-04-24 21:17 | 4.26672 | 11.72694 | 35001 ft | 450 kts | 17° |
| 2026-04-24 21:18 | 4.32640 | 11.74582 | 34995 ft | 450 kts | 17° |
| 2026-04-24 21:18 | 4.38614 | 11.76473 | 35001 ft | 450 kts | 17° |
| 2026-04-24 21:19 | 4.44548 | 11.78351 | 35005 ft | 450 kts | 17° |
| 2026-04-24 21:19 | 4.50558 | 11.80254 | 34999 ft | 450 kts | 17° |
| 2026-04-24 21:20 | 4.59509 | 11.83089 | 34996 ft | 450 kts | 17° |
| 2026-04-24 21:21 | 4.65445 | 11.84969 | 34999 ft | 450 kts | 17° |
| 2026-04-24 21:21 | 4.71419 | 11.86861 | 35004 ft | 450 kts | 17° |
| 2026-04-24 21:22 | 4.77395 | 11.88755 | 34997 ft | 450 kts | 17° |
| 2026-04-24 21:22 | 4.83373 | 11.90649 | 35004 ft | 451 kts | 17° |
| 2026-04-24 21:23 | 4.89352 | 11.92544 | 35006 ft | 451 kts | 17° |
| 2026-04-24 21:23 | 4.95334 | 11.94441 | 35003 ft | 451 kts | 17° |
| 2026-04-24 21:24 | 5.01317 | 11.96338 | 35002 ft | 451 kts | 17° |
| 2026-04-24 21:24 | 5.07296 | 11.98234 | 34999 ft | 451 kts | 17° |
| 2026-04-24 21:25 | 5.13275 | 12.00131 | 35002 ft | 451 kts | 17° |
| 2026-04-24 21:25 | 5.19257 | 12.02029 | 35000 ft | 451 kts | 17° |
| 2026-04-24 21:26 | 5.25234 | 12.03926 | 35000 ft | 451 kts | 17° |
| 2026-04-24 21:26 | 5.31210 | 12.05823 | 35000 ft | 451 kts | 17° |
| 2026-04-24 21:27 | 5.37189 | 12.07722 | 35001 ft | 451 kts | 17° |
| 2026-04-24 21:27 | 5.43173 | 12.09622 | 34998 ft | 451 kts | 17° |
| 2026-04-24 21:28 | 5.49159 | 12.11519 | 34999 ft | 451 kts | 17° |
| 2026-04-24 21:28 | 5.55149 | 12.13416 | 35001 ft | 452 kts | 17° |
| 2026-04-24 21:29 | 5.61148 | 12.15318 | 35003 ft | 453 kts | 17° |
| 2026-04-24 21:29 | 5.67157 | 12.17223 | 35000 ft | 453 kts | 17° |
| 2026-04-24 21:30 | 5.73168 | 12.19129 | 34996 ft | 453 kts | 17° |
| 2026-04-24 21:30 | 5.79184 | 12.21038 | 35007 ft | 453 kts | 17° |
| 2026-04-24 21:31 | 5.85203 | 12.22948 | 35007 ft | 453 kts | 17° |
| 2026-04-24 21:31 | 5.91218 | 12.24857 | 35000 ft | 453 kts | 17° |
| 2026-04-24 21:32 | 5.97193 | 12.26754 | 35004 ft | 453 kts | 17° |
| 2026-04-24 21:32 | 6.03244 | 12.28676 | 34996 ft | 453 kts | 17° |
| 2026-04-24 21:33 | 6.09212 | 12.30571 | 34999 ft | 453 kts | 17° |
| 2026-04-24 21:33 | 6.15222 | 12.32480 | 34996 ft | 453 kts | 17° |
| 2026-04-24 21:34 | 6.21231 | 12.34390 | 34996 ft | 453 kts | 17° |
| 2026-04-24 21:34 | 6.27239 | 12.36300 | 34997 ft | 453 kts | 17° |
| 2026-04-24 21:35 | 6.33248 | 12.38210 | 35002 ft | 453 kts | 17° |
| 2026-04-24 21:35 | 6.39247 | 12.40118 | 34996 ft | 452 kts | 17° |
| 2026-04-24 21:36 | 6.45249 | 12.42027 | 34996 ft | 452 kts | 17° |
| 2026-04-24 21:36 | 6.51252 | 12.43937 | 34999 ft | 452 kts | 17° |
| 2026-04-24 21:37 | 6.57253 | 12.45847 | 35002 ft | 452 kts | 17° |
| 2026-04-24 21:37 | 6.63256 | 12.47758 | 34996 ft | 452 kts | 17° |
| 2026-04-24 21:38 | 6.69256 | 12.49668 | 35002 ft | 452 kts | 18° |
| 2026-04-24 21:38 | 6.75254 | 12.51579 | 35000 ft | 452 kts | 18° |
| 2026-04-24 21:39 | 6.81262 | 12.53494 | 35008 ft | 453 kts | 18° |
| 2026-04-24 21:39 | 6.87263 | 12.55406 | 35003 ft | 453 kts | 18° |
| 2026-04-24 21:40 | 6.93270 | 12.57326 | 35002 ft | 453 kts | 18° |
| 2026-04-24 21:40 | 6.99237 | 12.59237 | 34996 ft | 453 kts | 18° |
| 2026-04-24 21:41 | 7.05242 | 12.61160 | 35002 ft | 453 kts | 18° |
| 2026-04-24 21:41 | 7.11255 | 12.63086 | 34996 ft | 454 kts | 18° |
| 2026-04-24 21:42 | 7.17271 | 12.65013 | 34997 ft | 454 kts | 18° |
| 2026-04-24 21:42 | 7.23291 | 12.66944 | 35001 ft | 454 kts | 18° |
| 2026-04-24 21:43 | 7.29304 | 12.68878 | 35008 ft | 454 kts | 18° |
| 2026-04-24 21:43 | 7.35324 | 12.70816 | 35002 ft | 454 kts | 18° |
| 2026-04-24 21:44 | 7.41345 | 12.72754 | 34998 ft | 454 kts | 18° |
| 2026-04-24 21:44 | 7.47363 | 12.74692 | 35002 ft | 455 kts | 18° |
| 2026-04-24 21:45 | 7.53394 | 12.76635 | 34996 ft | 455 kts | 18° |
| 2026-04-24 21:45 | 7.59421 | 12.78577 | 35004 ft | 455 kts | 18° |
| 2026-04-24 21:46 | 7.65442 | 12.80517 | 35000 ft | 455 kts | 18° |
| 2026-04-24 21:46 | 7.71467 | 12.82459 | 35001 ft | 454 kts | 18° |
| 2026-04-24 21:47 | 7.76473 | 12.84074 | 34997 ft | 454 kts | 18° |
| 2026-04-24 21:47 | 7.83468 | 12.86330 | 35000 ft | 455 kts | 18° |
| 2026-04-24 21:48 | 7.89495 | 12.88275 | 35012 ft | 454 kts | 18° |
| 2026-04-24 21:48 | 7.95501 | 12.90214 | 34998 ft | 453 kts | 18° |
| 2026-04-24 21:49 | 8.00523 | 12.91835 | 34997 ft | 451 kts | 18° |
| 2026-04-24 21:49 | 8.06498 | 12.93750 | 35000 ft | 450 kts | 18° |
| 2026-04-24 21:50 | 8.12414 | 12.95640 | 35000 ft | 449 kts | 18° |
| 2026-04-24 21:50 | 8.18363 | 12.97542 | 35002 ft | 448 kts | 18° |
| 2026-04-24 21:51 | 8.24299 | 12.99443 | 35005 ft | 447 kts | 18° |
| 2026-04-24 21:51 | 8.30231 | 13.01343 | 35001 ft | 447 kts | 18° |
| 2026-04-24 21:52 | 8.36148 | 13.03240 | 35003 ft | 447 kts | 18° |
| 2026-04-24 21:52 | 8.42083 | 13.05142 | 35003 ft | 447 kts | 18° |
| 2026-04-24 21:53 | 8.48012 | 13.07044 | 34998 ft | 448 kts | 18° |
| 2026-04-24 21:53 | 8.53956 | 13.08950 | 34988 ft | 449 kts | 18° |
| 2026-04-24 21:54 | 8.59921 | 13.10865 | 35007 ft | 450 kts | 18° |
| 2026-04-24 21:54 | 8.65903 | 13.12785 | 34999 ft | 451 kts | 18° |
| 2026-04-24 21:55 | 8.71886 | 13.14706 | 35002 ft | 451 kts | 18° |
| 2026-04-24 21:55 | 8.77866 | 13.16627 | 34997 ft | 451 kts | 18° |
| 2026-04-24 21:56 | 8.83839 | 13.18546 | 35004 ft | 451 kts | 18° |
| 2026-04-24 21:56 | 8.89814 | 13.20467 | 34998 ft | 450 kts | 18° |
| 2026-04-24 21:57 | 8.95742 | 13.22373 | 35004 ft | 450 kts | 18° |
| 2026-04-24 21:57 | 9.01696 | 13.24288 | 34996 ft | 449 kts | 18° |
| 2026-04-24 21:58 | 9.07648 | 13.26204 | 35000 ft | 448 kts | 18° |
| 2026-04-24 21:58 | 9.13589 | 13.28116 | 35000 ft | 448 kts | 18° |
| 2026-04-24 21:59 | 9.19533 | 13.30030 | 35005 ft | 448 kts | 18° |
| 2026-04-24 21:59 | 9.25467 | 13.31942 | 34996 ft | 448 kts | 18° |
| 2026-04-24 22:00 | 9.31391 | 13.33880 | 34998 ft | 447 kts | 21° |
| 2026-04-24 22:00 | 9.36766 | 13.36997 | 35004 ft | 447 kts | 38° |
| 2026-04-24 22:01 | 9.41630 | 13.40915 | 34996 ft | 447 kts | 39° |
| 2026-04-24 22:01 | 9.46493 | 13.44846 | 35003 ft | 447 kts | 38° |
| 2026-04-24 22:02 | 9.51381 | 13.48752 | 35004 ft | 448 kts | 38° |
| 2026-04-24 22:02 | 9.56290 | 13.52650 | 35007 ft | 448 kts | 38° |
| 2026-04-24 22:03 | 9.61172 | 13.56523 | 35001 ft | 449 kts | 38° |
| 2026-04-24 22:03 | 9.66088 | 13.60425 | 34996 ft | 449 kts | 38° |
| 2026-04-24 22:04 | 9.70971 | 13.64304 | 35003 ft | 450 kts | 38° |
| 2026-04-24 22:04 | 9.75893 | 13.68216 | 35000 ft | 450 kts | 38° |
| 2026-04-24 22:05 | 9.80815 | 13.72130 | 34995 ft | 449 kts | 38° |
| 2026-04-24 22:05 | 9.85745 | 13.76051 | 34720 ft | 454 kts | 38° |
| 2026-04-24 22:05 | 9.88236 | 13.78034 | 34374 ft | 454 kts | 38° |
| 2026-04-24 22:06 | 9.90714 | 13.80005 | 34023 ft | 451 kts | 38° |
| 2026-04-24 22:06 | 9.93175 | 13.81964 | 33670 ft | 449 kts | 38° |
| 2026-04-24 22:06 | 9.95638 | 13.83925 | 33334 ft | 450 kts | 38° |
| 2026-04-24 22:06 | 9.98105 | 13.85891 | 32988 ft | 451 kts | 38° |
| 2026-04-24 22:07 | 10.00574 | 13.87857 | 32643 ft | 451 kts | 38° |
| 2026-04-24 22:07 | 10.03042 | 13.89824 | 32297 ft | 452 kts | 38° |
| 2026-04-24 22:07 | 10.05518 | 13.91796 | 31951 ft | 452 kts | 38° |
| 2026-04-24 22:07 | 10.07979 | 13.93758 | 31562 ft | 447 kts | 38° |
| 2026-04-24 22:08 | 10.10415 | 13.95705 | 31192 ft | 443 kts | 38° |
| 2026-04-24 22:08 | 10.12817 | 13.97627 | 30802 ft | 439 kts | 38° |
| 2026-04-24 22:08 | 10.15216 | 13.99549 | 30399 ft | 439 kts | 38° |
| 2026-04-24 22:08 | 10.17621 | 14.01476 | 30010 ft | 440 kts | 38° |
| 2026-04-24 22:09 | 10.20025 | 14.03403 | 29610 ft | 441 kts | 38° |
| 2026-04-24 22:09 | 10.22435 | 14.05334 | 29216 ft | 441 kts | 38° |
| 2026-04-24 22:09 | 10.24847 | 14.07267 | 28818 ft | 442 kts | 38° |
| 2026-04-24 22:09 | 10.27239 | 14.09184 | 28409 ft | 435 kts | 38° |
| 2026-04-24 22:10 | 10.29563 | 14.11048 | 28013 ft | 428 kts | 38° |
| 2026-04-24 22:10 | 10.31909 | 14.12929 | 27604 ft | 422 kts | 38° |
| 2026-04-24 22:10 | 10.34180 | 14.14751 | 27209 ft | 420 kts | 38° |
| 2026-04-24 22:10 | 10.36467 | 14.16585 | 26810 ft | 418 kts | 38° |
| 2026-04-24 22:11 | 10.38743 | 14.18412 | 26397 ft | 416 kts | 38° |
| 2026-04-24 22:11 | 10.41008 | 14.20230 | 26014 ft | 414 kts | 38° |
| 2026-04-24 22:11 | 10.43261 | 14.22038 | 25614 ft | 412 kts | 38° |
| 2026-04-24 22:11 | 10.45514 | 14.23827 | 25218 ft | 410 kts | 36° |
| 2026-04-24 22:12 | 10.47946 | 14.25331 | 24807 ft | 409 kts | 26° |
| 2026-04-24 22:12 | 10.50519 | 14.26541 | 24422 ft | 407 kts | 24° |
| 2026-04-24 22:12 | 10.53099 | 14.27718 | 24020 ft | 405 kts | 24° |
| 2026-04-24 22:12 | 10.55664 | 14.28886 | 23621 ft | 403 kts | 24° |
| 2026-04-24 22:13 | 10.58214 | 14.30058 | 23220 ft | 401 kts | 24° |
| 2026-04-24 22:13 | 10.60748 | 14.31234 | 22822 ft | 399 kts | 25° |
| 2026-04-24 22:13 | 10.63262 | 14.32408 | 22422 ft | 397 kts | 25° |
| 2026-04-24 22:13 | 10.65761 | 14.33579 | 22022 ft | 394 kts | 25° |
| 2026-04-24 22:14 | 10.68241 | 14.34744 | 21624 ft | 392 kts | 25° |
| 2026-04-24 22:14 | 10.70704 | 14.35902 | 21223 ft | 389 kts | 25° |
| 2026-04-24 22:14 | 10.73148 | 14.37051 | 20824 ft | 386 kts | 25° |
| 2026-04-24 22:14 | 10.75586 | 14.38198 | 20423 ft | 384 kts | 25° |
| 2026-04-24 22:15 | 10.77999 | 14.39333 | 20020 ft | 381 kts | 25° |
| 2026-04-24 22:15 | 10.80401 | 14.40463 | 19625 ft | 379 kts | 25° |
| 2026-04-24 22:15 | 10.82785 | 14.41584 | 19223 ft | 377 kts | 25° |
| 2026-04-24 22:15 | 10.85155 | 14.42700 | 18830 ft | 374 kts | 25° |
| 2026-04-24 22:16 | 10.87516 | 14.43811 | 18425 ft | 372 kts | 25° |
| 2026-04-24 22:16 | 10.89855 | 14.44912 | 18020 ft | 370 kts | 25° |
| 2026-04-24 22:16 | 10.92188 | 14.46010 | 17627 ft | 368 kts | 25° |
| 2026-04-24 22:16 | 10.94506 | 14.47102 | 17224 ft | 366 kts | 25° |
| 2026-04-24 22:17 | 10.96813 | 14.48190 | 16829 ft | 364 kts | 25° |
| 2026-04-24 22:17 | 10.99105 | 14.49271 | 16428 ft | 362 kts | 25° |
| 2026-04-24 22:17 | 11.01387 | 14.50349 | 16029 ft | 360 kts | 25° |
| 2026-04-24 22:17 | 11.03655 | 14.51420 | 15631 ft | 358 kts | 25° |
| 2026-04-24 22:18 | 11.05911 | 14.52485 | 15231 ft | 357 kts | 25° |
| 2026-04-24 22:18 | 11.08157 | 14.53547 | 14832 ft | 355 kts | 25° |
| 2026-04-24 22:18 | 11.10393 | 14.54603 | 14433 ft | 354 kts | 25° |
| 2026-04-24 22:18 | 11.12623 | 14.55657 | 14036 ft | 353 kts | 25° |
| 2026-04-24 22:19 | 11.14843 | 14.56706 | 13633 ft | 350 kts | 25° |
| 2026-04-24 22:19 | 11.17040 | 14.57745 | 13236 ft | 346 kts | 25° |
| 2026-04-24 22:19 | 11.19214 | 14.58773 | 12835 ft | 343 kts | 25° |
| 2026-04-24 22:19 | 11.21375 | 14.59795 | 12430 ft | 341 kts | 25° |
| 2026-04-24 22:20 | 11.23513 | 14.60806 | 12028 ft | 338 kts | 25° |
| 2026-04-24 22:20 | 11.25610 | 14.61798 | 11669 ft | 334 kts | 25° |
| 2026-04-24 22:20 | 11.27695 | 14.62785 | 11428 ft | 327 kts | 25° |
| 2026-04-24 22:20 | 11.29769 | 14.63766 | 11165 ft | 321 kts | 25° |
| 2026-04-24 22:21 | 11.31766 | 14.64711 | 11007 ft | 312 kts | 25° |
| 2026-04-24 22:21 | 11.33706 | 14.65630 | 10854 ft | 304 kts | 25° |
| 2026-04-24 22:21 | 11.35577 | 14.66516 | 10688 ft | 297 kts | 25° |
| 2026-04-24 22:21 | 11.37425 | 14.67391 | 10530 ft | 289 kts | 25° |
| 2026-04-24 22:22 | 11.39233 | 14.68247 | 10374 ft | 284 kts | 25° |
| 2026-04-24 22:22 | 11.41022 | 14.69094 | 10224 ft | 283 kts | 25° |
| 2026-04-24 22:22 | 11.42803 | 14.69938 | 10082 ft | 282 kts | 25° |
| 2026-04-24 22:22 | 11.44575 | 14.70777 | 9923 ft | 281 kts | 25° |
| 2026-04-24 22:23 | 11.46346 | 14.71617 | 9777 ft | 280 kts | 25° |
| 2026-04-24 22:23 | 11.48109 | 14.72452 | 9624 ft | 279 kts | 25° |
| 2026-04-24 22:23 | 11.49869 | 14.73286 | 9480 ft | 279 kts | 25° |
| 2026-04-24 22:23 | 11.51626 | 14.74119 | 9334 ft | 278 kts | 25° |
| 2026-04-24 22:24 | 11.53380 | 14.74951 | 9181 ft | 278 kts | 25° |
| 2026-04-24 22:24 | 11.55129 | 14.75780 | 9038 ft | 277 kts | 25° |
| 2026-04-24 22:24 | 11.56879 | 14.76610 | 8876 ft | 277 kts | 25° |
| 2026-04-24 22:24 | 11.58626 | 14.77439 | 8732 ft | 277 kts | 25° |
| 2026-04-24 22:25 | 11.60372 | 14.78267 | 8584 ft | 277 kts | 25° |
| 2026-04-24 22:25 | 11.62118 | 14.79096 | 8436 ft | 276 kts | 25° |
| 2026-04-24 22:25 | 11.63860 | 14.79923 | 8286 ft | 276 kts | 25° |
| 2026-04-24 22:25 | 11.65604 | 14.80750 | 8136 ft | 276 kts | 25° |
| 2026-04-24 22:26 | 11.67344 | 14.81577 | 7987 ft | 276 kts | 25° |
| 2026-04-24 22:26 | 11.69083 | 14.82402 | 7835 ft | 276 kts | 25° |
| 2026-04-24 22:26 | 11.70820 | 14.83227 | 7685 ft | 275 kts | 25° |
| 2026-04-24 22:26 | 11.72554 | 14.84050 | 7535 ft | 275 kts | 25° |
| 2026-04-24 22:27 | 11.74281 | 14.84879 | 7386 ft | 274 kts | 27° |
| 2026-04-24 22:27 | 11.75864 | 14.85953 | 7235 ft | 273 kts | 38° |
| 2026-04-24 22:27 | 11.77335 | 14.87181 | 7087 ft | 273 kts | 40° |
| 2026-04-24 22:27 | 11.78780 | 14.88429 | 6936 ft | 272 kts | 40° |
| 2026-04-24 22:28 | 11.80222 | 14.89673 | 6787 ft | 271 kts | 40° |
| 2026-04-24 22:28 | 11.81666 | 14.90909 | 6632 ft | 271 kts | 40° |
| 2026-04-24 22:28 | 11.83112 | 14.92138 | 6485 ft | 270 kts | 39° |
| 2026-04-24 22:28 | 11.84556 | 14.93357 | 6334 ft | 269 kts | 39° |
| 2026-04-24 22:29 | 11.87422 | 14.95765 | 6036 ft | 268 kts | 39° |
| 2026-04-24 22:29 | 11.88859 | 14.96968 | 5885 ft | 267 kts | 39° |
| 2026-04-24 22:29 | 11.90294 | 14.98168 | 5729 ft | 266 kts | 39° |
| 2026-04-24 22:30 | 11.91725 | 14.99364 | 5582 ft | 266 kts | 39° |
| 2026-04-24 22:30 | 11.93155 | 15.00558 | 5435 ft | 265 kts | 39° |
| 2026-04-24 22:30 | 11.94579 | 15.01748 | 5285 ft | 264 kts | 39° |
| 2026-04-24 22:30 | 11.96004 | 15.02937 | 5134 ft | 264 kts | 39° |
| 2026-04-24 22:31 | 11.97422 | 15.04121 | 4984 ft | 263 kts | 39° |
| 2026-04-24 22:31 | 11.98837 | 15.05303 | 4834 ft | 263 kts | 39° |
| 2026-04-24 22:31 | 12.00251 | 15.06483 | 4684 ft | 262 kts | 39° |
| 2026-04-24 22:31 | 12.01662 | 15.07661 | 4529 ft | 262 kts | 39° |
| 2026-04-24 22:32 | 12.03070 | 15.08837 | 4384 ft | 261 kts | 39° |
| 2026-04-24 22:32 | 12.04458 | 15.09996 | 4259 ft | 254 kts | 39° |
| 2026-04-24 22:32 | 12.05801 | 15.11119 | 4162 ft | 246 kts | 39° |
| 2026-04-24 22:32 | 12.07104 | 15.12207 | 4061 ft | 238 kts | 39° |
| 2026-04-24 22:33 | 12.08364 | 15.13260 | 3959 ft | 231 kts | 39° |
| 2026-04-24 22:33 | 12.09588 | 15.14282 | 3856 ft | 223 kts | 39° |
| 2026-04-24 22:33 | 12.10772 | 15.15272 | 3754 ft | 216 kts | 39° |
| 2026-04-24 22:33 | 12.11910 | 15.16224 | 3675 ft | 206 kts | 39° |
| 2026-04-24 22:34 | 12.12986 | 15.17123 | 3590 ft | 197 kts | 39° |
| 2026-04-24 22:34 | 12.14047 | 15.18010 | 3528 ft | 196 kts | 39° |
| 2026-04-24 22:34 | 12.15104 | 15.18894 | 3436 ft | 196 kts | 39° |
| 2026-04-24 22:34 | 12.16159 | 15.19776 | 3337 ft | 196 kts | 39° |
| 2026-04-24 22:35 | 12.17213 | 15.20658 | 3238 ft | 195 kts | 39° |
| 2026-04-24 22:35 | 12.18253 | 15.21527 | 3202 ft | 192 kts | 39° |
| 2026-04-24 22:35 | 12.19285 | 15.22390 | 3202 ft | 191 kts | 39° |
| 2026-04-24 22:35 | 12.20280 | 15.23222 | 3176 ft | 177 kts | 39° |
| 2026-04-24 22:36 | 12.21242 | 15.23927 | 3174 ft | 167 kts | 19° |
| 2026-04-24 22:36 | 12.22343 | 15.23886 | 3241 ft | 163 kts | 336° |
| 2026-04-24 22:36 | 12.23227 | 15.23178 | 3213 ft | 159 kts | 316° |
| 2026-04-24 22:36 | 12.24006 | 15.22421 | 3191 ft | 154 kts | 316° |
| 2026-04-24 22:37 | 12.24787 | 15.21659 | 3190 ft | 153 kts | 316° |
| 2026-04-24 22:37 | 12.25552 | 15.20911 | 3202 ft | 155 kts | 316° |
| 2026-04-24 22:37 | 12.26332 | 15.20147 | 3206 ft | 156 kts | 316° |
| 2026-04-24 22:37 | 12.27096 | 15.19361 | 3199 ft | 157 kts | 307° |
| 2026-04-24 22:38 | 12.27331 | 15.18334 | 3186 ft | 152 kts | 250° |
| 2026-04-24 22:38 | 12.26682 | 15.17482 | 3219 ft | 155 kts | 226° |
| 2026-04-24 22:38 | 12.25988 | 15.16705 | 3217 ft | 142 kts | 227° |
| 2026-04-24 22:38 | 12.25330 | 15.15981 | 3193 ft | 137 kts | 226° |
| 2026-04-24 22:39 | 12.24894 | 15.15510 | 3200 ft | 138 kts | 226° |
| 2026-04-24 22:39 | 12.24121 | 15.14687 | 3202 ft | 139 kts | 226° |
| 2026-04-24 22:39 | 12.23666 | 15.14206 | 3199 ft | 139 kts | 226° |
| 2026-04-24 22:39 | 12.23000 | 15.13505 | 3196 ft | 139 kts | 226° |
| 2026-04-24 22:40 | 12.22318 | 15.12787 | 3196 ft | 139 kts | 226° |
| 2026-04-24 22:40 | 12.21643 | 15.12079 | 3196 ft | 139 kts | 226° |
| 2026-04-24 22:40 | 12.20965 | 15.11367 | 3086 ft | 141 kts | 226° |
| 2026-04-24 22:40 | 12.20285 | 15.10653 | 2900 ft | 139 kts | 226° |
| 2026-04-24 22:41 | 12.19617 | 15.09952 | 2729 ft | 137 kts | 226° |
| 2026-04-24 22:41 | 12.18951 | 15.09253 | 2537 ft | 138 kts | 226° |
| 2026-04-24 22:41 | 12.18292 | 15.08561 | 2364 ft | 137 kts | 226° |
| 2026-04-24 22:41 | 12.17627 | 15.07864 | 2184 ft | 137 kts | 226° |
| 2026-04-24 22:42 | 12.16965 | 15.07169 | 2000 ft | 136 kts | 226° |
| 2026-04-24 22:42 | 12.16305 | 15.06476 | 1819 ft | 136 kts | 226° |
| 2026-04-24 22:42 | 12.15724 | 15.05866 | 1666 ft | 136 kts | 226° |
| 2026-04-24 22:42 | 12.15064 | 15.05174 | 1362 ft | 139 kts | 226° |
| 2026-04-24 22:43 | 12.14395 | 15.04476 | 1068 ft | 134 kts | 225° |
| 2026-04-24 22:43 | 12.13748 | 15.03818 | 980 ft | 131 kts | 225° |
| 2026-04-24 22:43 | 12.13283 | 15.03306 | 978 ft | 45 kts | 227° |
| 2026-04-24 22:43 | 12.13118 | 15.03161 | 980 ft | 25 kts | 176° |
| 2026-04-24 22:44 | 12.12997 | 15.03214 | 980 ft | 18 kts | 157° |
| 2026-04-24 22:44 | 12.12921 | 15.03264 | 977 ft | 0 kts | 160° |